createdAt,value
2022-11-27T00:00:59.305Z,56.60
2022-11-27T00:03:30.906Z,56.70
2022-11-27T00:06:07.933Z,57.50
2022-11-27T00:08:38.704Z,57.20
2022-11-27T00:11:11.625Z,57.10
2022-11-27T00:13:42.518Z,56.80
2022-11-27T00:16:17.417Z,59.20
2022-11-27T00:18:48.813Z,58.60
2022-11-27T00:21:24.995Z,58.70
2022-11-27T00:23:56.859Z,59.10
2022-11-27T00:26:31.881Z,60.00
2022-11-27T00:29:05.958Z,58.80
2022-11-27T00:31:38.386Z,58.80
2022-11-27T00:34:11.047Z,60.00
2022-11-27T00:36:48.440Z,60.00
2022-11-27T00:39:22.354Z,60.00
2022-11-27T00:41:53.208Z,62.20
2022-11-27T00:44:24.014Z,62.40
2022-11-27T00:46:54.801Z,60.50
2022-11-27T00:49:25.554Z,62.50
2022-11-27T00:51:58.911Z,62.10
2022-11-27T00:54:31.566Z,62.90
2022-11-27T00:57:02.351Z,62.20
2022-11-27T00:59:33.875Z,62.40
2022-11-27T01:02:07.601Z,61.60
2022-11-27T01:04:38.657Z,61.20
2022-11-27T01:07:12.360Z,60.80
2022-11-27T01:09:43.611Z,62.00
2022-11-27T01:12:14.488Z,63.10
2022-11-27T01:14:45.262Z,60.60
2022-11-27T01:17:16.418Z,59.90
2022-11-27T01:19:47.133Z,59.80
2022-11-27T01:22:20.470Z,59.80
2022-11-27T01:24:51.329Z,59.70
2022-11-27T01:27:22.159Z,59.80
2022-11-27T01:29:53.219Z,61.50
2022-11-27T01:32:24.106Z,59.70
2022-11-27T01:34:54.827Z,57.80
2022-11-27T01:37:28.208Z,60.90
2022-11-27T01:39:58.996Z,61.20
